createdAt,value
2019-02-26T00:01:48.583Z,5.37
2019-02-26T00:04:11.659Z,5.07
2019-02-26T00:06:38.595Z,5.27
2019-02-26T00:09:07.729Z,5.23
2019-02-26T00:11:36.167Z,5.53
2019-02-26T00:14:01.642Z,4.77
2019-02-26T00:16:28.996Z,5.57
2019-02-26T00:18:56.229Z,5.27
2019-02-26T00:21:24.421Z,4.90
2019-02-26T00:23:51.325Z,5.00
2019-02-26T00:26:18.323Z,5.47
2019-02-26T00:28:45.744Z,5.40
2019-02-26T00:31:11.325Z,5.47
2019-02-26T00:33:38.272Z,5.50
2019-02-26T00:36:07.163Z,5.37
2019-02-26T00:38:33.065Z,5.77
2019-02-26T00:41:01.553Z,5.17
2019-02-26T00:43:28.019Z,5.47
2019-02-26T00:45:53.335Z,5.53
2019-02-26T00:48:19.972Z,5.13
2019-02-26T00:50:47.019Z,5.40
2019-02-26T00:53:17.152Z,5.37
2019-02-26T00:55:40.927Z,4.97
2019-02-26T00:58:08.430Z,5.17
2019-02-26T01:00:35.467Z,4.97
2019-02-26T01:03:03.549Z,5.23
2019-02-26T01:05:28.699Z,5.23
2019-02-26T01:07:55.646Z,5.40
2019-02-26T01:10:23.641Z,4.90
2019-02-26T01:12:49.633Z,5.30
2019-02-26T01:15:16.664Z,5.23
2019-02-26T01:17:43.636Z,5.67
2019-02-26T01:20:12.872Z,4.93
2019-02-26T01:22:40.241Z,5.17
2019-02-26T01:25:07.292Z,5.47
2019-02-26T01:27:34.220Z,5.07
2019-02-26T01:30:03.268Z,5.30
2019-02-26T01:32:28.105Z,5.20
2019-02-26T01:34:55.043Z,5.00
2019-02-26T01:37:22.024Z,4.97
2019-02-26T01:39:50.046Z,5.63
2019-02-26T01:42:17.999Z,5.13
2019-02-26T01:44:44.445Z,4.97
2019-02-26T01:47:09.792Z,4.87
2019-02-26T01:49:36.741Z,5.20
2019-02-26T01:52:03.675Z,5.20
2019-02-26T01:54:32.955Z,4.90
2019-02-26T01:56:57.540Z,4.87
2019-02-26T01:59:24.499Z,5.57
2019-02-26T02:01:53.272Z,5.60
2019-02-26T02:04:19.602Z,5.20
2019-02-26T02:06:45.347Z,5.00
2019-02-26T02:09:14.115Z,5.20
2019-02-26T02:11:40.726Z,5.43
2019-02-26T02:14:08.210Z,5.50
2019-02-26T02:16:34.055Z,5.33
2019-02-26T02:19:01.012Z,5.87
2019-02-26T02:21:30.450Z,5.13
2019-02-26T02:23:56.103Z,5.20
2019-02-26T02:26:23.041Z,5.00
2019-02-26T02:28:50.017Z,5.33
2019-02-26T02:31:16.937Z,4.80
2019-02-26T02:33:43.879Z,5.80
2019-02-26T02:36:11.798Z,5.10
2019-02-26T02:38:37.802Z,4.80
2019-02-26T02:41:04.736Z,5.53
2019-02-26T02:43:31.705Z,5.27
2019-02-26T02:46:01.220Z,5.20
2019-02-26T02:48:25.586Z,5.67
2019-02-26T02:50:52.536Z,5.77
2019-02-26T02:53:21.090Z,5.20
2019-02-26T02:55:48.875Z,5.23
2019-02-26T02:58:15.907Z,5.17
2019-02-26T03:00:40.330Z,4.87
2019-02-26T03:03:07.270Z,5.43
2019-02-26T03:05:37.218Z,5.20
2019-02-26T03:08:01.141Z,5.30
2019-02-26T03:10:30.818Z,5.47
2019-02-26T03:12:57.807Z,5.23
2019-02-26T03:15:24.625Z,5.37
2019-02-26T03:17:48.939Z,4.90
2019-02-26T03:20:15.973Z,5.80
2019-02-26T03:22:46.068Z,5.00
2019-02-26T03:25:11.686Z,5.37
2019-02-26T03:27:40.620Z,4.97
2019-02-26T03:30:07.130Z,5.40
2019-02-26T03:32:36.603Z,5.43
2019-02-26T03:35:04.403Z,5.63
2019-02-26T03:37:28.819Z,5.40
2019-02-26T03:39:57.322Z,4.90
2019-02-26T03:42:21.852Z,5.20
2019-02-26T03:44:48.780Z,5.53
2019-02-26T03:47:16.247Z,5.53
2019-02-26T03:49:42.676Z,5.60
2019-02-26T03:52:09.612Z,5.63
2019-02-26T03:54:39.848Z,5.40
2019-02-26T03:57:03.526Z,5.73
2019-02-26T03:59:30.474Z,5.23
2019-02-26T04:01:57.402Z,5.50
2019-02-26T04:04:26.132Z,5.77
2019-02-26T04:06:51.303Z,5.17
2019-02-26T04:09:19.595Z,5.40
2019-02-26T04:11:47.749Z,5.57
2019-02-26T04:14:12.595Z,5.43
2019-02-26T04:16:41.130Z,5.47
2019-02-26T04:19:08.912Z,4.90
2019-02-26T04:21:58.476Z,5.47
2019-02-26T04:24:26.013Z,5.20
2019-02-26T04:27:10.952Z,5.30
2019-02-26T04:29:55.284Z,5.40
2019-02-26T04:32:50.816Z,5.27
2019-02-26T04:35:27.108Z,5.90
2019-02-26T04:38:09.263Z,5.57
2019-02-26T04:40:57.671Z,5.30
2019-02-26T04:43:34.176Z,6.63
2019-02-26T04:46:15.212Z,6.20
2019-02-26T04:48:42.188Z,6.00
2019-02-26T04:51:09.108Z,5.70
2019-02-26T04:53:36.498Z,5.60
2019-02-26T04:56:05.807Z,5.20
2019-02-26T04:58:29.980Z,6.07
2019-02-26T05:00:56.949Z,5.30
2019-02-26T05:03:23.887Z,5.20
2019-02-26T05:05:53.709Z,5.53
2019-02-26T05:08:17.880Z,5.17
2019-02-26T05:10:46.371Z,5.43
2019-02-26T05:13:11.627Z,5.73
2019-02-26T05:15:38.568Z,6.33
2019-02-26T05:18:05.504Z,6.57
2019-02-26T05:20:34.067Z,6.60
2019-02-26T05:23:00.996Z,6.20
2019-02-26T05:25:27.160Z,6.17
2019-02-26T05:27:56.467Z,6.20
2019-02-26T05:30:23.408Z,5.87
2019-02-26T05:32:51.938Z,6.20
2019-02-26T05:35:19.670Z,5.90
2019-02-26T05:37:44.257Z,5.87
2019-02-26T05:40:13.387Z,6.43
2019-02-26T05:42:38.124Z,5.80
2019-02-26T05:45:08.430Z,6.63
2019-02-26T05:47:32.157Z,6.03
2019-02-26T05:49:59.530Z,6.00
2019-02-26T05:52:27.265Z,6.07
2019-02-26T05:54:52.973Z,5.47
2019-02-26T05:57:30.870Z,5.80
2019-02-26T05:59:46.865Z,5.40
2019-02-26T06:02:16.221Z,6.33
2019-02-26T06:04:41.863Z,5.63
2019-02-26T06:07:08.170Z,5.63
2019-02-26T06:09:35.090Z,5.70
2019-02-26T06:12:02.028Z,14.93
2019-02-26T06:14:31.278Z,17.47
2019-02-26T06:16:55.979Z,8.50
2019-02-26T06:19:39.598Z,12.00
2019-02-26T06:22:04.712Z,13.10
2019-02-26T06:24:33.211Z,9.33
2019-02-26T06:26:58.668Z,9.70
2019-02-26T06:29:27.416Z,8.80
2019-02-26T06:31:53.169Z,7.40
2019-02-26T06:34:21.417Z,5.90
2019-02-26T06:36:48.785Z,6.17
2019-02-26T06:39:14.004Z,5.73
2019-02-26T06:41:41.917Z,6.07
2019-02-26T06:44:07.904Z,6.13
2019-02-26T06:46:35.967Z,6.33
2019-02-26T06:49:01.829Z,6.17
2019-02-26T06:51:30.621Z,5.50
2019-02-26T06:54:19.646Z,19.00
2019-02-26T06:56:44.320Z,16.40
2019-02-26T06:59:12.122Z,6.20
2019-02-26T07:01:37.958Z,6.47
2019-02-26T07:04:04.191Z,6.40
2019-02-26T07:06:33.120Z,5.77
2019-02-26T07:08:58.084Z,5.83
2019-02-26T07:11:26.192Z,6.23
2019-02-26T07:13:53.733Z,5.50
2019-02-26T07:16:20.622Z,5.93
2019-02-26T07:18:45.983Z,6.63
2019-02-26T07:21:12.912Z,6.43
2019-02-26T07:23:40.067Z,5.87
2019-02-26T07:26:06.815Z,6.13
2019-02-26T07:28:33.776Z,5.63
2019-02-26T07:31:02.807Z,6.70
2019-02-26T07:33:29.863Z,5.80
2019-02-26T07:35:57.330Z,5.60
2019-02-26T07:38:23.103Z,6.60
2019-02-26T07:40:49.452Z,5.87
2019-02-26T07:43:17.912Z,5.87
2019-02-26T07:45:43.396Z,6.07
2019-02-26T07:48:10.345Z,6.53
2019-02-26T07:50:40.015Z,6.03
2019-02-26T07:53:04.236Z,6.30
2019-02-26T07:55:32.708Z,6.30
2019-02-26T07:57:58.118Z,6.00
2019-02-26T08:00:25.079Z,5.97
2019-02-26T08:02:54.009Z,6.20
2019-02-26T08:05:21.066Z,6.40
2019-02-26T08:07:46.709Z,6.07
2019-02-26T08:10:16.378Z,6.50
2019-02-26T08:12:42.709Z,6.37
2019-02-26T08:15:12.621Z,6.33
2019-02-26T08:17:37.663Z,6.57
2019-02-26T08:20:07.448Z,6.53
2019-02-26T08:22:33.901Z,6.40
2019-02-26T08:24:58.539Z,6.13
2019-02-26T08:27:26.363Z,6.57
2019-02-26T08:29:54.143Z,6.20
2019-02-26T08:32:21.024Z,6.13
2019-02-26T08:34:46.623Z,6.07
2019-02-26T08:37:13.591Z,6.37
2019-02-26T08:39:40.516Z,6.47
2019-02-26T08:42:09.078Z,6.23
2019-02-26T08:44:36.037Z,5.93
2019-02-26T08:47:06.201Z,6.47
2019-02-26T08:49:29.989Z,6.57
2019-02-26T08:51:56.937Z,6.40
2019-02-26T08:54:26.025Z,6.50
2019-02-26T08:56:50.792Z,6.73
2019-02-26T08:59:18.359Z,6.90
2019-02-26T09:01:44.718Z,6.07
2019-02-26T09:04:14.421Z,6.23
2019-02-26T09:06:39.346Z,6.47
2019-02-26T09:09:06.908Z,6.57
2019-02-26T09:11:35.925Z,6.03
2019-02-26T09:14:02.214Z,6.30
2019-02-26T09:16:29.981Z,6.57
2019-02-26T09:18:54.708Z,6.37
2019-02-26T09:21:22.865Z,5.63
2019-02-26T09:23:51.945Z,5.97
2019-02-26T09:26:15.560Z,5.43
2019-02-26T09:28:44.606Z,6.77
2019-02-26T09:31:11.675Z,6.77
2019-02-26T09:33:38.718Z,6.45
2019-02-26T09:38:41.875Z,6.37
2019-02-26T09:41:09.464Z,6.03
2019-02-26T09:43:36.280Z,6.62
2019-02-26T09:46:01.391Z,6.15
2019-02-26T09:48:28.343Z,6.15
2019-02-26T09:50:55.304Z,6.05
2019-02-26T09:53:22.283Z,6.10
2019-02-26T09:55:49.267Z,5.95
2019-02-26T09:58:18.085Z,6.05
2019-02-26T10:00:46.078Z,6.30
2019-02-26T10:03:13.223Z,6.05
2019-02-26T10:05:38.773Z,6.17
2019-02-26T10:08:05.826Z,5.70
2019-02-26T10:10:34.614Z,6.53
2019-02-26T10:13:02.894Z,6.22
2019-02-26T10:15:27.392Z,6.40
2019-02-26T10:17:56.223Z,6.65
2019-02-26T10:20:24.791Z,6.47
2019-02-26T10:22:48.293Z,6.42
2019-02-26T10:25:17.929Z,6.00
2019-02-26T10:27:45.545Z,6.47
2019-02-26T10:30:17.426Z,6.60
2019-02-26T10:32:46.834Z,6.85
2019-02-26T10:35:18.045Z,6.53
2019-02-26T10:37:44.924Z,6.92
2019-02-26T10:40:12.555Z,6.80
2019-02-26T10:42:39.894Z,7.08
2019-02-26T10:45:06.369Z,6.50
2019-02-26T10:47:34.653Z,6.80
2019-02-26T10:49:59.982Z,6.62
2019-02-26T10:52:28.660Z,6.62
2019-02-26T10:54:53.911Z,6.62
2019-02-26T10:57:20.837Z,6.58
2019-02-26T10:59:49.131Z,6.12
2019-02-26T11:02:17.821Z,7.20
2019-02-26T11:04:44.003Z,6.85
2019-02-26T11:07:11.481Z,6.28
2019-02-26T11:09:36.977Z,6.30
2019-02-26T11:12:07.904Z,6.65
2019-02-26T11:14:33.549Z,6.53
2019-02-26T11:16:58.504Z,6.33
2019-02-26T11:19:27.356Z,6.05
2019-02-26T11:21:58.674Z,6.08
2019-02-26T11:24:28.194Z,6.42
2019-02-26T11:26:56.752Z,6.30
2019-02-26T11:29:26.124Z,6.28
2019-02-26T11:31:53.198Z,6.30
2019-02-26T11:34:20.380Z,6.20
2019-02-26T11:36:48.821Z,6.45
2019-02-26T11:39:16.911Z,6.20
2019-02-26T11:41:43.933Z,6.47
2019-02-26T11:44:12.732Z,5.50
2019-02-26T11:46:37.829Z,6.03
2019-02-26T11:49:04.793Z,5.20
2019-02-26T11:51:37.134Z,5.73
2019-02-26T11:54:00.130Z,5.83
2019-02-26T11:56:25.952Z,5.73
2019-02-26T11:58:52.696Z,5.77
2019-02-26T12:01:19.631Z,6.40
2019-02-26T12:03:46.580Z,6.50
2019-02-26T12:06:13.621Z,6.77
2019-02-26T12:08:42.431Z,6.23
2019-02-26T12:11:12.374Z,7.27
2019-02-26T12:13:34.629Z,12.13
2019-02-26T12:16:01.604Z,9.90
2019-02-26T12:18:28.532Z,7.60
2019-02-26T12:20:55.498Z,6.83
2019-02-26T12:23:22.822Z,7.30
2019-02-26T12:25:49.885Z,6.60
2019-02-26T12:28:16.448Z,7.43
2019-02-26T12:30:46.123Z,7.30
2019-02-26T12:33:12.382Z,7.33
2019-02-26T12:35:38.680Z,6.77
2019-02-26T12:38:17.261Z,7.20
2019-02-26T12:40:31.733Z,7.67
2019-02-26T12:42:58.708Z,7.33
2019-02-26T12:45:27.965Z,7.93
2019-02-26T12:47:55.103Z,7.50
2019-02-26T12:50:19.543Z,7.23
2019-02-26T12:52:47.481Z,6.87
2019-02-26T12:55:13.436Z,7.27
2019-02-26T12:57:40.443Z,6.43
2019-02-26T13:00:13.166Z,6.27
2019-02-26T13:02:39.762Z,6.30
2019-02-26T13:05:06.671Z,6.27
2019-02-26T13:07:32.148Z,6.70
2019-02-26T13:10:02.781Z,5.60
2019-02-26T13:12:29.688Z,6.63
2019-02-26T13:14:54.603Z,6.13
2019-02-26T13:17:21.101Z,6.30
2019-02-26T13:19:49.168Z,5.40
2019-02-26T13:22:17.986Z,5.50
2019-02-26T13:24:40.853Z,5.67
2019-02-26T13:27:07.808Z,5.97
2019-02-26T13:29:34.730Z,5.83
2019-02-26T13:32:01.667Z,5.67
2019-02-26T13:34:28.636Z,5.53
2019-02-26T13:36:56.788Z,5.70
2019-02-26T13:39:29.947Z,5.53
2019-02-26T13:41:54.194Z,5.80
2019-02-26T13:44:17.943Z,5.90
2019-02-26T13:46:44.889Z,5.60
2019-02-26T13:49:11.852Z,5.93
2019-02-26T13:51:38.792Z,6.07
2019-02-26T13:54:05.959Z,6.03
2019-02-26T13:56:32.904Z,6.07
2019-02-26T13:58:59.844Z,6.27
2019-02-26T14:01:26.788Z,6.27
2019-02-26T14:03:53.771Z,5.30
2019-02-26T14:06:20.705Z,5.40
2019-02-26T14:08:48.649Z,6.13
2019-02-26T14:11:15.604Z,6.13
2019-02-26T14:13:42.554Z,6.53
2019-02-26T14:16:09.685Z,5.93
2019-02-26T14:18:36.485Z,5.83
2019-02-26T14:21:03.424Z,5.87
2019-02-26T14:23:34.882Z,5.97
2019-02-26T14:25:57.333Z,6.07
2019-02-26T14:28:24.249Z,6.10
2019-02-26T14:30:51.189Z,5.70
2019-02-26T14:33:18.167Z,6.20
2019-02-26T14:35:45.136Z,6.33
2019-02-26T14:38:12.048Z,6.20
2019-02-26T14:40:39.664Z,6.60
2019-02-26T14:43:06.740Z,6.27
2019-02-26T14:45:33.680Z,6.10
2019-02-26T14:48:00.736Z,6.30
2019-02-26T14:50:27.684Z,6.70
2019-02-26T14:52:54.641Z,6.60
2019-02-26T14:55:21.582Z,7.30
2019-02-26T14:57:48.500Z,6.80
2019-02-26T15:00:18.175Z,6.40
2019-02-26T15:02:45.151Z,6.37
2019-02-26T15:05:12.079Z,9.27
2019-02-26T15:07:39.109Z,11.90
2019-02-26T15:10:06.224Z,7.47
2019-02-26T15:12:33.167Z,7.37
2019-02-26T15:15:00.431Z,7.20
2019-02-26T15:17:27.126Z,8.27
2019-02-26T15:19:54.118Z,8.33
2019-02-26T15:22:21.046Z,7.30
2019-02-26T15:24:48.008Z,7.93
2019-02-26T15:27:14.980Z,7.73
2019-02-26T15:29:41.922Z,7.30
2019-02-26T15:32:08.868Z,7.97
2019-02-26T15:34:35.812Z,8.67
2019-02-26T15:37:02.832Z,7.10
2019-02-26T15:39:29.765Z,8.00
2019-02-26T15:41:58.039Z,7.63
2019-02-26T15:44:26.159Z,7.47
2019-02-26T15:46:51.967Z,7.73
2019-02-26T15:49:18.943Z,8.20
2019-02-26T15:51:45.877Z,7.83
2019-02-26T15:54:12.831Z,7.80
2019-02-26T15:56:39.791Z,8.17
2019-02-26T15:59:06.730Z,7.33
2019-02-26T16:01:33.681Z,7.50
2019-02-26T16:04:00.611Z,8.13
2019-02-26T16:06:27.574Z,8.20
2019-02-26T16:08:54.981Z,8.07
2019-02-26T16:11:21.941Z,7.17
2019-02-26T16:13:48.904Z,7.57
2019-02-26T16:16:15.840Z,7.33
2019-02-26T16:18:42.776Z,7.03
2019-02-26T16:21:09.764Z,7.57
2019-02-26T16:23:36.716Z,7.00
2019-02-26T16:26:05.620Z,7.13
2019-02-26T16:28:30.596Z,6.40
2019-02-26T16:30:57.552Z,6.97
2019-02-26T16:33:24.488Z,7.20
2019-02-26T16:35:52.310Z,7.07
2019-02-26T16:38:18.383Z,6.43
2019-02-26T16:40:45.311Z,7.20
2019-02-26T16:43:14.862Z,6.93
2019-02-26T16:45:39.393Z,6.97
2019-02-26T16:48:06.329Z,7.00
2019-02-26T16:50:33.288Z,7.90
2019-02-26T16:53:01.163Z,7.47
2019-02-26T16:55:27.183Z,7.60
2019-02-26T16:57:54.131Z,7.67
2019-02-26T17:00:21.115Z,7.93
2019-02-26T17:02:48.050Z,8.70
2019-02-26T17:05:15.209Z,6.87
2019-02-26T17:07:41.929Z,7.20
2019-02-26T17:10:10.360Z,7.20
2019-02-26T17:12:37.291Z,7.13
2019-02-26T17:15:05.414Z,7.37
2019-02-26T17:17:34.386Z,7.10
2019-02-26T17:19:59.331Z,7.27
2019-02-26T17:22:26.303Z,7.30
2019-02-26T17:24:53.641Z,7.20
2019-02-26T17:27:20.151Z,6.80
2019-02-26T17:29:49.351Z,6.83
2019-02-26T17:32:14.045Z,7.53
2019-02-26T17:34:40.969Z,8.00
2019-02-26T17:37:08.497Z,8.10
2019-02-26T17:39:34.869Z,7.50
2019-02-26T17:42:01.811Z,7.27
2019-02-26T17:44:29.111Z,7.50
2019-02-26T17:46:56.031Z,7.43
2019-02-26T17:49:22.959Z,7.33
2019-02-26T17:51:49.955Z,7.80
2019-02-26T17:54:16.888Z,8.23
2019-02-26T17:56:43.813Z,8.30
2019-02-26T17:59:10.762Z,24.23
2019-02-26T18:01:37.690Z,22.20
2019-02-26T18:04:04.627Z,10.53
2019-02-26T18:06:31.778Z,8.63
2019-02-26T18:08:58.734Z,10.23
2019-02-26T18:11:25.677Z,11.00
2019-02-26T18:13:52.657Z,8.23
2019-02-26T18:16:19.615Z,11.13
2019-02-26T18:18:46.591Z,20.33
2019-02-26T18:21:13.543Z,11.00
2019-02-26T18:23:40.464Z,10.87
2019-02-26T18:26:07.427Z,12.67
2019-02-26T18:28:34.377Z,12.47
2019-02-26T18:31:01.364Z,11.60
2019-02-26T18:33:28.330Z,10.83
2019-02-26T18:35:55.269Z,11.93
2019-02-26T18:38:22.207Z,11.70
2019-02-26T18:40:49.143Z,11.50
2019-02-26T18:43:16.114Z,17.93
2019-02-26T18:45:44.891Z,13.30
2019-02-26T18:48:12.626Z,11.33
2019-02-26T18:50:39.169Z,10.47
2019-02-26T18:53:05.796Z,13.27
2019-02-26T18:55:32.777Z,14.60
2019-02-26T18:57:59.715Z,11.03
2019-02-26T19:00:26.703Z,10.23
2019-02-26T19:02:53.639Z,11.33
2019-02-26T19:05:21.040Z,11.63
2019-02-26T19:07:47.555Z,12.70
2019-02-26T19:10:17.508Z,11.17
2019-02-26T19:12:41.606Z,12.50
2019-02-26T19:15:12.612Z,12.53
2019-02-26T19:17:37.429Z,16.50
2019-02-26T19:20:06.122Z,25.40
2019-02-26T19:22:33.072Z,13.17
2019-02-26T19:25:00.013Z,11.83
2019-02-26T19:27:26.981Z,14.17
2019-02-26T19:29:53.923Z,13.30
2019-02-26T19:32:20.897Z,12.83
2019-02-26T19:34:47.894Z,12.10
2019-02-26T19:37:16.726Z,11.47
2019-02-26T19:39:41.800Z,11.40
2019-02-26T19:42:08.769Z,11.17
2019-02-26T19:44:36.429Z,12.23
2019-02-26T19:47:04.299Z,11.23
2019-02-26T19:49:31.270Z,12.10
2019-02-26T19:51:58.216Z,11.60
2019-02-26T19:54:25.201Z,11.80
2019-02-26T19:56:56.696Z,11.47
2019-02-26T19:59:19.460Z,10.63
2019-02-26T20:01:46.448Z,10.23
2019-02-26T20:04:13.473Z,10.77
2019-02-26T20:06:40.441Z,10.53
2019-02-26T20:09:07.401Z,9.67
2019-02-26T20:11:34.405Z,11.50
2019-02-26T20:14:04.717Z,10.70
2019-02-26T20:16:28.439Z,10.47
2019-02-26T20:18:58.767Z,8.70
2019-02-26T20:21:22.288Z,9.60
2019-02-26T20:23:49.244Z,57.23
2019-02-26T20:26:16.472Z,44.33
2019-02-26T20:28:43.125Z,12.07
2019-02-26T20:31:10.076Z,10.13
2019-02-26T20:33:37.025Z,7.63
2019-02-26T20:36:03.975Z,7.90
2019-02-26T20:38:35.041Z,7.10
2019-02-26T20:40:57.942Z,6.63
2019-02-26T20:43:24.913Z,7.43
2019-02-26T20:45:51.864Z,6.23
2019-02-26T20:48:20.718Z,6.53
2019-02-26T20:50:47.645Z,5.67
2019-02-26T20:53:14.575Z,6.30
2019-02-26T20:55:41.532Z,6.50
2019-02-26T20:58:09.678Z,6.53
2019-02-26T21:00:35.498Z,6.80
2019-02-26T21:03:02.464Z,6.33
2019-02-26T21:05:29.401Z,5.50
2019-02-26T21:07:58.758Z,6.63
2019-02-26T21:10:23.373Z,6.17
2019-02-26T21:12:50.305Z,6.93
2019-02-26T21:15:17.352Z,7.13
2019-02-26T21:17:44.321Z,7.10
2019-02-26T21:20:11.489Z,6.40
2019-02-26T21:22:38.411Z,6.53
2019-02-26T21:25:05.577Z,6.93
2019-02-26T21:27:32.503Z,7.10
2019-02-26T21:29:59.561Z,6.77
2019-02-26T21:32:26.523Z,6.93
2019-02-26T21:34:53.488Z,6.67
2019-02-26T21:37:20.416Z,7.00
2019-02-26T21:39:47.422Z,7.27
2019-02-26T21:42:14.360Z,7.63
2019-02-26T21:44:41.855Z,6.47
2019-02-26T21:47:08.390Z,6.83
2019-02-26T21:49:35.584Z,6.83
2019-02-26T21:52:04.141Z,7.00
2019-02-26T21:54:29.546Z,6.83
2019-02-26T21:56:56.488Z,6.50
2019-02-26T21:59:23.437Z,6.80
2019-02-26T22:01:50.404Z,6.13
2019-02-26T22:04:17.418Z,6.37
2019-02-26T22:06:45.940Z,6.40
2019-02-26T22:09:11.324Z,6.50
2019-02-26T22:11:38.275Z,6.27
2019-02-26T22:14:05.201Z,5.93
2019-02-26T22:16:32.191Z,6.03
2019-02-26T22:18:59.164Z,6.80
2019-02-26T22:21:26.144Z,6.20
2019-02-26T22:23:53.142Z,6.10
2019-02-26T22:26:20.133Z,6.20
2019-02-26T22:28:47.110Z,6.17
2019-02-26T22:31:14.055Z,6.33
2019-02-26T22:33:43.182Z,6.50
2019-02-26T22:36:08.093Z,6.10
2019-02-26T22:38:35.202Z,6.50
2019-02-26T22:41:02.892Z,6.03
2019-02-26T22:52:10.481Z,6.10
2019-02-26T22:54:37.438Z,6.00
2019-02-26T22:57:04.491Z,5.80
2019-02-26T22:59:31.490Z,5.97
2019-02-26T23:01:58.461Z,5.93
2019-02-26T23:04:25.409Z,6.20
2019-02-26T23:06:52.392Z,6.00
2019-02-26T23:09:21.303Z,5.90
2019-02-26T23:11:48.697Z,5.67
2019-02-26T23:14:15.664Z,5.73
2019-02-26T23:16:42.619Z,5.57
2019-02-26T23:19:09.552Z,5.90
2019-02-26T23:21:36.518Z,6.33
2019-02-26T23:24:03.481Z,5.93
2019-02-26T23:26:30.460Z,23.83
2019-02-26T23:28:57.457Z,11.60
2019-02-26T23:31:24.410Z,6.47
2019-02-26T23:33:51.382Z,6.27
2019-02-26T23:36:18.386Z,6.70
2019-02-26T23:38:45.353Z,6.20
2019-02-26T23:41:12.317Z,6.00
2019-02-26T23:43:39.291Z,6.53
2019-02-26T23:46:06.219Z,6.33
2019-02-26T23:48:33.181Z,6.33
2019-02-26T23:51:00.193Z,5.77
2019-02-26T23:53:28.164Z,6.00
2019-02-26T23:55:55.092Z,5.40
2019-02-26T23:58:22.056Z,5.40
